sensor_id;sensor_type;location;lat;lon;timestamp;P1;durP1;ratioP1;P2;durP2;ratioP2
31848;SDS011;18414;59.352;18.152;2022-07-23T00:00:39;19.55;;;7.45;;
31848;SDS011;18414;59.352;18.152;2022-07-23T00:03:04;17.77;;;7.43;;
31848;SDS011;18414;59.352;18.152;2022-07-23T00:05:30;22.15;;;7.97;;
31848;SDS011;18414;59.352;18.152;2022-07-23T00:07:57;19.23;;;7.80;;
31848;SDS011;18414;59.352;18.152;2022-07-23T00:10:22;21.77;;;7.47;;
31848;SDS011;18414;59.352;18.152;2022-07-23T00:12:48;16.42;;;7.82;;
31848;SDS011;18414;59.352;18.152;2022-07-23T00:15:13;23.33;;;7.38;;
31848;SDS011;18414;59.352;18.152;2022-07-23T00:17:39;23.45;;;8.02;;
31848;SDS011;18414;59.352;18.152;2022-07-23T00:20:04;21.23;;;7.43;;
31848;SDS011;18414;59.352;18.152;2022-07-23T00:22:30;23.02;;;7.93;;
31848;SDS011;18414;59.352;18.152;2022-07-23T00:24:56;17.45;;;7.35;;
31848;SDS011;18414;59.352;18.152;2022-07-23T00:27:21;23.80;;;8.05;;
31848;SDS011;18414;59.352;18.152;2022-07-23T00:29:47;23.55;;;7.68;;
31848;SDS011;18414;59.352;18.152;2022-07-23T00:32:12;22.95;;;7.55;;
31848;SDS011;18414;59.352;18.152;2022-07-23T00:34:38;25.27;;;7.97;;
31848;SDS011;18414;59.352;18.152;2022-07-23T00:37:03;26.52;;;9.90;;
31848;SDS011;18414;59.352;18.152;2022-07-23T00:39:29;27.73;;;8.35;;
31848;SDS011;18414;59.352;18.152;2022-07-23T00:41:54;28.65;;;8.82;;
31848;SDS011;18414;59.352;18.152;2022-07-23T00:44:24;27.33;;;8.77;;
31848;SDS011;18414;59.352;18.152;2022-07-23T00:46:51;25.05;;;8.68;;
31848;SDS011;18414;59.352;18.152;2022-07-23T00:49:19;28.60;;;9.00;;
31848;SDS011;18414;59.352;18.152;2022-07-23T00:51:46;33.15;;;9.63;;
31848;SDS011;18414;59.352;18.152;2022-07-23T00:54:13;31.75;;;9.95;;
31848;SDS011;18414;59.352;18.152;2022-07-23T00:56:39;35.72;;;10.00;;
31848;SDS011;18414;59.352;18.152;2022-07-23T00:59:05;30.90;;;10.57;;
31848;SDS011;18414;59.352;18.152;2022-07-23T01:01:31;38.45;;;11.25;;
31848;SDS011;18414;59.352;18.152;2022-07-23T01:03:56;29.67;;;10.50;;
31848;SDS011;18414;59.352;18.152;2022-07-23T01:06:22;31.77;;;11.60;;
31848;SDS011;18414;59.352;18.152;2022-07-23T01:08:47;36.30;;;10.73;;
31848;SDS011;18414;59.352;18.152;2022-07-23T01:11:13;32.00;;;11.40;;
31848;SDS011;18414;59.352;18.152;2022-07-23T01:13:44;33.92;;;10.20;;
31848;SDS011;18414;59.352;18.152;2022-07-23T01:16:10;35.20;;;10.88;;
31848;SDS011;18414;59.352;18.152;2022-07-23T01:18:35;33.08;;;10.13;;
31848;SDS011;18414;59.352;18.152;2022-07-23T01:21:01;34.47;;;10.57;;
31848;SDS011;18414;59.352;18.152;2022-07-23T01:23:27;37.35;;;10.02;;
31848;SDS011;18414;59.352;18.152;2022-07-23T01:25:52;37.20;;;10.98;;
31848;SDS011;18414;59.352;18.152;2022-07-23T01:28:18;35.40;;;10.07;;
31848;SDS011;18414;59.352;18.152;2022-07-23T01:30:44;37.65;;;9.32;;
31848;SDS011;18414;59.352;18.152;2022-07-23T01:33:10;35.55;;;11.10;;
31848;SDS011;18414;59.352;18.152;2022-07-23T01:35:35;33.17;;;9.82;;
31848;SDS011;18414;59.352;18.152;2022-07-23T01:38:01;29.02;;;9.88;;
31848;SDS011;18414;59.352;18.152;2022-07-23T01:40:26;32.95;;;10.00;;
31848;SDS011;18414;59.352;18.152;2022-07-23T01:42:52;26.13;;;9.32;;
31848;SDS011;18414;59.352;18.152;2022-07-23T01:45:17;22.92;;;8.32;;
31848;SDS011;18414;59.352;18.152;2022-07-23T01:47:42;19.73;;;7.53;;
31848;SDS011;18414;59.352;18.152;2022-07-23T01:50:08;22.25;;;7.97;;
31848;SDS011;18414;59.352;18.152;2022-07-23T01:52:33;19.23;;;7.80;;
31848;SDS011;18414;59.352;18.152;2022-07-23T01:54:59;17.75;;;6.93;;
31848;SDS011;18414;59.352;18.152;2022-07-23T01:57:24;17.92;;;7.13;;
31848;SDS011;18414;59.352;18.152;2022-07-23T01:59:49;19.08;;;7.07;;
31848;SDS011;18414;59.352;18.152;2022-07-23T02:02:15;16.85;;;6.22;;
31848;SDS011;18414;59.352;18.152;2022-07-23T02:04:40;14.80;;;6.40;;
31848;SDS011;18414;59.352;18.152;2022-07-23T02:07:06;16.83;;;6.63;;
31848;SDS011;18414;59.352;18.152;2022-07-23T02:09:31;15.63;;;6.40;;
31848;SDS011;18414;59.352;18.152;2022-07-23T02:11:57;15.88;;;6.45;;
31848;SDS011;18414;59.352;18.152;2022-07-23T02:14:22;13.52;;;5.70;;
31848;SDS011;18414;59.352;18.152;2022-07-23T02:16:48;16.88;;;6.18;;
31848;SDS011;18414;59.352;18.152;2022-07-23T02:19:13;15.35;;;5.70;;
31848;SDS011;18414;59.352;18.152;2022-07-23T02:21:39;12.50;;;5.00;;
31848;SDS011;18414;59.352;18.152;2022-07-23T02:24:04;11.60;;;5.38;;
31848;SDS011;18414;59.352;18.152;2022-07-23T02:26:30;14.52;;;5.88;;
31848;SDS011;18414;59.352;18.152;2022-07-23T02:28:59;12.00;;;4.70;;
31848;SDS011;18414;59.352;18.152;2022-07-23T02:31:24;10.27;;;5.03;;
31848;SDS011;18414;59.352;18.152;2022-07-23T02:33:50;11.13;;;4.97;;
31848;SDS011;18414;59.352;18.152;2022-07-23T02:36:15;14.63;;;5.38;;
31848;SDS011;18414;59.352;18.152;2022-07-23T02:38:40;13.57;;;5.10;;
31848;SDS011;18414;59.352;18.152;2022-07-23T02:41:06;11.93;;;4.72;;
31848;SDS011;18414;59.352;18.152;2022-07-23T02:43:31;14.05;;;5.03;;
31848;SDS011;18414;59.352;18.152;2022-07-23T02:45:56;16.83;;;5.43;;
31848;SDS011;18414;59.352;18.152;2022-07-23T02:48:22;11.35;;;4.32;;
31848;SDS011;18414;59.352;18.152;2022-07-23T02:50:47;11.07;;;4.43;;
31848;SDS011;18414;59.352;18.152;2022-07-23T02:53:12;10.38;;;4.18;;
31848;SDS011;18414;59.352;18.152;2022-07-23T02:55:38;9.15;;;3.67;;
31848;SDS011;18414;59.352;18.152;2022-07-23T02:58:03;6.75;;;3.00;;
31848;SDS011;18414;59.352;18.152;2022-07-23T03:00:28;6.03;;;2.90;;
31848;SDS011;18414;59.352;18.152;2022-07-23T03:02:54;7.10;;;2.83;;
31848;SDS011;18414;59.352;18.152;2022-07-23T03:05:19;5.03;;;2.90;;
31848;SDS011;18414;59.352;18.152;2022-07-23T03:07:44;6.00;;;2.90;;
31848;SDS011;18414;59.352;18.152;2022-07-23T03:10:10;6.93;;;3.03;;
31848;SDS011;18414;59.352;18.152;2022-07-23T03:12:35;4.30;;;2.60;;
31848;SDS011;18414;59.352;18.152;2022-07-23T03:15:01;5.15;;;2.60;;
31848;SDS011;18414;59.352;18.152;2022-07-23T03:17:26;5.85;;;2.58;;
31848;SDS011;18414;59.352;18.152;2022-07-23T03:19:51;5.28;;;2.63;;
31848;SDS011;18414;59.352;18.152;2022-07-23T03:22:17;6.03;;;2.20;;
31848;SDS011;18414;59.352;18.152;2022-07-23T03:24:42;5.88;;;2.75;;
31848;SDS011;18414;59.352;18.152;2022-07-23T03:27:20;6.13;;;2.33;;
31848;SDS011;18414;59.352;18.152;2022-07-23T03:29:52;4.05;;;2.15;;
31848;SDS011;18414;59.352;18.152;2022-07-23T03:32:18;4.65;;;2.33;;
31848;SDS011;18414;59.352;18.152;2022-07-23T03:34:44;4.53;;;1.88;;
31848;SDS011;18414;59.352;18.152;2022-07-23T03:37:09;3.72;;;1.90;;
31848;SDS011;18414;59.352;18.152;2022-07-23T03:39:35;3.45;;;1.70;;
31848;SDS011;18414;59.352;18.152;2022-07-23T03:42:01;4.55;;;2.00;;
31848;SDS011;18414;59.352;18.152;2022-07-23T03:44:27;3.42;;;1.67;;
31848;SDS011;18414;59.352;18.152;2022-07-23T03:46:52;2.80;;;1.38;;
31848;SDS011;18414;59.352;18.152;2022-07-23T03:49:18;2.78;;;1.45;;
31848;SDS011;18414;59.352;18.152;2022-07-23T03:51:43;4.00;;;1.75;;
31848;SDS011;18414;59.352;18.152;2022-07-23T03:54:08;2.42;;;1.70;;
31848;SDS011;18414;59.352;18.152;2022-07-23T03:56:34;4.57;;;1.80;;
31848;SDS011;18414;59.352;18.152;2022-07-23T03:58:59;2.58;;;1.58;;
31848;SDS011;18414;59.352;18.152;2022-07-23T04:01:25;3.42;;;1.70;;
31848;SDS011;18414;59.352;18.152;2022-07-23T04:03:50;1.98;;;1.42;;
31848;SDS011;18414;59.352;18.152;2022-07-23T04:06:15;2.22;;;1.38;;
31848;SDS011;18414;59.352;18.152;2022-07-23T04:08:41;3.70;;;1.80;;
31848;SDS011;18414;59.352;18.152;2022-07-23T04:11:06;2.75;;;1.67;;
31848;SDS011;18414;59.352;18.152;2022-07-23T04:13:31;2.58;;;1.52;;
31848;SDS011;18414;59.352;18.152;2022-07-23T04:15:57;3.35;;;1.55;;
31848;SDS011;18414;59.352;18.152;2022-07-23T04:18:23;3.03;;;1.35;;
31848;SDS011;18414;59.352;18.152;2022-07-23T04:20:50;2.92;;;1.60;;
31848;SDS011;18414;59.352;18.152;2022-07-23T04:23:16;2.80;;;1.60;;
31848;SDS011;18414;59.352;18.152;2022-07-23T04:25:42;2.13;;;1.80;;
31848;SDS011;18414;59.352;18.152;2022-07-23T04:28:07;2.75;;;1.50;;
31848;SDS011;18414;59.352;18.152;2022-07-23T04:30:33;2.65;;;1.63;;
31848;SDS011;18414;59.352;18.152;2022-07-23T04:32:58;1.80;;;1.40;;
31848;SDS011;18414;59.352;18.152;2022-07-23T04:35:24;2.83;;;1.73;;
31848;SDS011;18414;59.352;18.152;2022-07-23T04:37:49;4.93;;;1.75;;
31848;SDS011;18414;59.352;18.152;2022-07-23T04:40:15;2.53;;;1.50;;
31848;SDS011;18414;59.352;18.152;2022-07-23T04:42:40;3.15;;;1.48;;
31848;SDS011;18414;59.352;18.152;2022-07-23T04:45:05;2.65;;;1.48;;
31848;SDS011;18414;59.352;18.152;2022-07-23T04:47:31;3.38;;;1.50;;
31848;SDS011;18414;59.352;18.152;2022-07-23T04:49:56;2.50;;;1.60;;
31848;SDS011;18414;59.352;18.152;2022-07-23T04:52:22;2.70;;;1.52;;
31848;SDS011;18414;59.352;18.152;2022-07-23T04:54:48;2.42;;;1.58;;
31848;SDS011;18414;59.352;18.152;2022-07-23T04:57:13;3.05;;;1.70;;
31848;SDS011;18414;59.352;18.152;2022-07-23T04:59:38;2.17;;;1.50;;
31848;SDS011;18414;59.352;18.152;2022-07-23T05:02:04;3.20;;;1.60;;
31848;SDS011;18414;59.352;18.152;2022-07-23T05:04:29;3.28;;;1.50;;
31848;SDS011;18414;59.352;18.152;2022-07-23T05:06:56;3.45;;;2.15;;
31848;SDS011;18414;59.352;18.152;2022-07-23T05:09:22;2.85;;;1.80;;
31848;SDS011;18414;59.352;18.152;2022-07-23T05:11:47;3.95;;;1.83;;
31848;SDS011;18414;59.352;18.152;2022-07-23T05:14:12;3.38;;;1.90;;
31848;SDS011;18414;59.352;18.152;2022-07-23T05:16:38;4.07;;;1.85;;
31848;SDS011;18414;59.352;18.152;2022-07-23T05:19:03;3.08;;;1.90;;
31848;SDS011;18414;59.352;18.152;2022-07-23T05:21:29;2.85;;;1.60;;
31848;SDS011;18414;59.352;18.152;2022-07-23T05:23:54;5.85;;;2.00;;
31848;SDS011;18414;59.352;18.152;2022-07-23T05:26:20;4.43;;;2.20;;
31848;SDS011;18414;59.352;18.152;2022-07-23T05:28:45;3.40;;;2.20;;
31848;SDS011;18414;59.352;18.152;2022-07-23T05:31:10;4.70;;;1.88;;
31848;SDS011;18414;59.352;18.152;2022-07-23T05:33:36;4.43;;;1.90;;
31848;SDS011;18414;59.352;18.152;2022-07-23T05:36:02;2.90;;;1.83;;
31848;SDS011;18414;59.352;18.152;2022-07-23T05:38:28;4.00;;;1.52;;
31848;SDS011;18414;59.352;18.152;2022-07-23T05:40:54;3.28;;;1.85;;
31848;SDS011;18414;59.352;18.152;2022-07-23T05:43:19;3.15;;;1.70;;
31848;SDS011;18414;59.352;18.152;2022-07-23T05:45:45;2.22;;;1.80;;
31848;SDS011;18414;59.352;18.152;2022-07-23T05:48:10;5.20;;;2.00;;
31848;SDS011;18414;59.352;18.152;2022-07-23T05:50:35;2.63;;;2.10;;
31848;SDS011;18414;59.352;18.152;2022-07-23T05:53:01;2.42;;;1.80;;
31848;SDS011;18414;59.352;18.152;2022-07-23T05:55:26;3.80;;;1.90;;
31848;SDS011;18414;59.352;18.152;2022-07-23T05:57:54;1.80;;;1.52;;
31848;SDS011;18414;59.352;18.152;2022-07-23T06:00:20;8.05;;;5.65;;
31848;SDS011;18414;59.352;18.152;2022-07-23T06:02:45;3.45;;;2.47;;
31848;SDS011;18414;59.352;18.152;2022-07-23T06:05:11;4.50;;;1.60;;
31848;SDS011;18414;59.352;18.152;2022-07-23T06:07:36;2.40;;;1.67;;
31848;SDS011;18414;59.352;18.152;2022-07-23T06:10:02;2.17;;;1.60;;
31848;SDS011;18414;59.352;18.152;2022-07-23T06:12:28;1.88;;;1.55;;
31848;SDS011;18414;59.352;18.152;2022-07-23T06:14:54;2.92;;;1.75;;
31848;SDS011;18414;59.352;18.152;2022-07-23T06:17:19;2.28;;;1.65;;
31848;SDS011;18414;59.352;18.152;2022-07-23T06:19:44;3.85;;;1.70;;
31848;SDS011;18414;59.352;18.152;2022-07-23T06:22:10;2.03;;;1.50;;
31848;SDS011;18414;59.352;18.152;2022-07-23T06:24:35;1.98;;;1.33;;
31848;SDS011;18414;59.352;18.152;2022-07-23T06:27:01;2.03;;;1.40;;
31848;SDS011;18414;59.352;18.152;2022-07-23T06:29:26;3.13;;;1.58;;
31848;SDS011;18414;59.352;18.152;2022-07-23T06:31:51;1.58;;;1.10;;
31848;SDS011;18414;59.352;18.152;2022-07-23T06:34:17;1.55;;;1.10;;
31848;SDS011;18414;59.352;18.152;2022-07-23T06:36:42;2.50;;;1.80;;
31848;SDS011;18414;59.352;18.152;2022-07-23T06:39:07;1.15;;;1.05;;
31848;SDS011;18414;59.352;18.152;2022-07-23T06:41:33;2.17;;;1.40;;
31848;SDS011;18414;59.352;18.152;2022-07-23T06:43:58;1.10;;;1.00;;
31848;SDS011;18414;59.352;18.152;2022-07-23T06:46:24;1.42;;;1.33;;
31848;SDS011;18414;59.352;18.152;2022-07-23T06:48:50;1.60;;;1.20;;
31848;SDS011;18414;59.352;18.152;2022-07-23T06:51:15;1.50;;;1.17;;
31848;SDS011;18414;59.352;18.152;2022-07-23T06:53:40;1.58;;;1.23;;
31848;SDS011;18414;59.352;18.152;2022-07-23T06:56:06;1.52;;;1.10;;
31848;SDS011;18414;59.352;18.152;2022-07-23T06:58:31;1.50;;;1.30;;
31848;SDS011;18414;59.352;18.152;2022-07-23T07:00:57;1.45;;;1.10;;
31848;SDS011;18414;59.352;18.152;2022-07-23T07:03:22;1.17;;;1.08;;
31848;SDS011;18414;59.352;18.152;2022-07-23T07:05:48;1.38;;;1.23;;
31848;SDS011;18414;59.352;18.152;2022-07-23T07:08:14;1.10;;;1.00;;
31848;SDS011;18414;59.352;18.152;2022-07-23T07:10:40;0.93;;;0.70;;
31848;SDS011;18414;59.352;18.152;2022-07-23T07:13:05;1.15;;;0.98;;
31848;SDS011;18414;59.352;18.152;2022-07-23T07:15:31;0.98;;;0.93;;
31848;SDS011;18414;59.352;18.152;2022-07-23T07:17:56;1.38;;;1.02;;
31848;SDS011;18414;59.352;18.152;2022-07-23T07:20:21;1.35;;;1.10;;
31848;SDS011;18414;59.352;18.152;2022-07-23T07:22:48;1.33;;;1.10;;
31848;SDS011;18414;59.352;18.152;2022-07-23T07:25:13;0.98;;;0.82;;
31848;SDS011;18414;59.352;18.152;2022-07-23T07:27:39;1.73;;;0.90;;
31848;SDS011;18414;59.352;18.152;2022-07-23T07:30:04;0.90;;;0.82;;
31848;SDS011;18414;59.352;18.152;2022-07-23T07:32:30;0.75;;;0.75;;
31848;SDS011;18414;59.352;18.152;2022-07-23T07:34:57;2.63;;;0.90;;
31848;SDS011;18414;59.352;18.152;2022-07-23T07:37:23;1.17;;;0.90;;
31848;SDS011;18414;59.352;18.152;2022-07-23T07:39:48;1.13;;;0.70;;
31848;SDS011;18414;59.352;18.152;2022-07-23T07:42:13;0.68;;;0.63;;
31848;SDS011;18414;59.352;18.152;2022-07-23T07:44:39;1.02;;;0.90;;
31848;SDS011;18414;59.352;18.152;2022-07-23T07:47:04;1.00;;;0.90;;
31848;SDS011;18414;59.352;18.152;2022-07-23T07:49:30;0.70;;;0.70;;
31848;SDS011;18414;59.352;18.152;2022-07-23T07:51:55;1.10;;;0.70;;
31848;SDS011;18414;59.352;18.152;2022-07-23T07:54:20;3.92;;;3.03;;
31848;SDS011;18414;59.352;18.152;2022-07-23T07:56:46;2.13;;;1.35;;
31848;SDS011;18414;59.352;18.152;2022-07-23T07:59:11;0.82;;;0.80;;
31848;SDS011;18414;59.352;18.152;2022-07-23T08:01:37;0.80;;;0.80;;
31848;SDS011;18414;59.352;18.152;2022-07-23T08:04:02;0.70;;;0.60;;
31848;SDS011;18414;59.352;18.152;2022-07-23T08:06:27;0.80;;;0.80;;
31848;SDS011;18414;59.352;18.152;2022-07-23T08:08:53;1.02;;;0.82;;
31848;SDS011;18414;59.352;18.152;2022-07-23T08:11:18;0.80;;;0.80;;
31848;SDS011;18414;59.352;18.152;2022-07-23T08:13:43;0.55;;;0.55;;
31848;SDS011;18414;59.352;18.152;2022-07-23T08:16:09;1.25;;;0.70;;
31848;SDS011;18414;59.352;18.152;2022-07-23T08:18:35;0.70;;;0.70;;
31848;SDS011;18414;59.352;18.152;2022-07-23T08:21:01;1.17;;;0.70;;
31848;SDS011;18414;59.352;18.152;2022-07-23T08:23:26;0.70;;;0.70;;
31848;SDS011;18414;59.352;18.152;2022-07-23T08:25:52;0.85;;;0.77;;
31848;SDS011;18414;59.352;18.152;2022-07-23T08:28:18;0.80;;;0.80;;
31848;SDS011;18414;59.352;18.152;2022-07-23T08:30:43;1.05;;;0.80;;
31848;SDS011;18414;59.352;18.152;2022-07-23T08:33:10;0.73;;;0.73;;
31848;SDS011;18414;59.352;18.152;2022-07-23T08:35:39;0.80;;;0.65;;
31848;SDS011;18414;59.352;18.152;2022-07-23T08:38:09;0.73;;;0.70;;
31848;SDS011;18414;59.352;18.152;2022-07-23T08:40:42;0.82;;;0.80;;
31848;SDS011;18414;59.352;18.152;2022-07-23T08:43:10;1.08;;;0.95;;
31848;SDS011;18414;59.352;18.152;2022-07-23T08:45:48;1.27;;;0.60;;
31848;SDS011;18414;59.352;18.152;2022-07-23T08:48:18;0.82;;;0.65;;
31848;SDS011;18414;59.352;18.152;2022-07-23T08:50:46;0.82;;;0.70;;
31848;SDS011;18414;59.352;18.152;2022-07-23T08:53:14;0.93;;;0.60;;
31848;SDS011;18414;59.352;18.152;2022-07-23T08:55:44;0.65;;;0.63;;
31848;SDS011;18414;59.352;18.152;2022-07-23T08:58:10;2.47;;;0.70;;
31848;SDS011;18414;59.352;18.152;2022-07-23T09:00:36;0.70;;;0.60;;
31848;SDS011;18414;59.352;18.152;2022-07-23T09:03:01;0.50;;;0.50;;
31848;SDS011;18414;59.352;18.152;2022-07-23T09:05:27;0.70;;;0.70;;
31848;SDS011;18414;59.352;18.152;2022-07-23T09:10:42;0.55;;;0.55;;
31848;SDS011;18414;59.352;18.152;2022-07-23T09:16:17;0.70;;;0.70;;
31848;SDS011;18414;59.352;18.152;2022-07-23T09:21:18;0.60;;;0.60;;
31848;SDS011;18414;59.352;18.152;2022-07-23T09:26:45;1.02;;;0.50;;
31848;SDS011;18414;59.352;18.152;2022-07-23T09:34:22;0.95;;;0.70;;
31848;SDS011;18414;59.352;18.152;2022-07-23T09:36:49;0.90;;;0.70;;
31848;SDS011;18414;59.352;18.152;2022-07-23T09:39:21;1.02;;;0.98;;
31848;SDS011;18414;59.352;18.152;2022-07-23T09:41:50;1.40;;;1.25;;
31848;SDS011;18414;59.352;18.152;2022-07-23T09:44:17;0.68;;;0.68;;
31848;SDS011;18414;59.352;18.152;2022-07-23T09:46:44;0.63;;;0.60;;
31848;SDS011;18414;59.352;18.152;2022-07-23T09:49:18;0.98;;;0.63;;
31848;SDS011;18414;59.352;18.152;2022-07-23T09:54:29;1.38;;;0.60;;
31848;SDS011;18414;59.352;18.152;2022-07-23T09:56:57;3.60;;;0.68;;
31848;SDS011;18414;59.352;18.152;2022-07-23T09:59:29;1.00;;;0.60;;
31848;SDS011;18414;59.352;18.152;2022-07-23T10:01:58;2.33;;;0.57;;
31848;SDS011;18414;59.352;18.152;2022-07-23T10:04:25;0.85;;;0.65;;
31848;SDS011;18414;59.352;18.152;2022-07-23T10:07:01;0.85;;;0.60;;
31848;SDS011;18414;59.352;18.152;2022-07-23T10:09:29;0.52;;;0.52;;
31848;SDS011;18414;59.352;18.152;2022-07-23T10:11:57;1.48;;;0.50;;
31848;SDS011;18414;59.352;18.152;2022-07-23T10:14:38;0.57;;;0.55;;
31848;SDS011;18414;59.352;18.152;2022-07-23T10:17:05;0.88;;;0.60;;
31848;SDS011;18414;59.352;18.152;2022-07-23T10:19:31;1.40;;;0.77;;
31848;SDS011;18414;59.352;18.152;2022-07-23T10:22:02;0.50;;;0.50;;
31848;SDS011;18414;59.352;18.152;2022-07-23T10:24:36;1.35;;;0.50;;
31848;SDS011;18414;59.352;18.152;2022-07-23T10:30:08;0.50;;;0.50;;
31848;SDS011;18414;59.352;18.152;2022-07-23T10:33:20;0.50;;;0.50;;
31848;SDS011;18414;59.352;18.152;2022-07-23T10:35:49;1.80;;;0.60;;
31848;SDS011;18414;59.352;18.152;2022-07-23T10:38:30;0.80;;;0.70;;
31848;SDS011;18414;59.352;18.152;2022-07-23T10:41:02;1.00;;;0.70;;
31848;SDS011;18414;59.352;18.152;2022-07-23T10:43:28;0.75;;;0.50;;
31848;SDS011;18414;59.352;18.152;2022-07-23T10:45:55;0.70;;;0.52;;
31848;SDS011;18414;59.352;18.152;2022-07-23T10:48:21;0.70;;;0.60;;
31848;SDS011;18414;59.352;18.152;2022-07-23T10:51:07;1.65;;;0.70;;
31848;SDS011;18414;59.352;18.152;2022-07-23T10:56:16;1.00;;;0.60;;
31848;SDS011;18414;59.352;18.152;2022-07-23T10:58:46;1.27;;;0.77;;
31848;SDS011;18414;59.352;18.152;2022-07-23T11:04:01;0.98;;;0.68;;
31848;SDS011;18414;59.352;18.152;2022-07-23T11:09:28;0.80;;;0.80;;
31848;SDS011;18414;59.352;18.152;2022-07-23T11:15:24;0.70;;;0.70;;
31848;SDS011;18414;59.352;18.152;2022-07-23T11:22:37;1.05;;;0.70;;
31848;SDS011;18414;59.352;18.152;2022-07-23T11:25:08;1.88;;;0.90;;
31848;SDS011;18414;59.352;18.152;2022-07-23T11:27:37;1.20;;;0.93;;
31848;SDS011;18414;59.352;18.152;2022-07-23T11:30:04;0.70;;;0.70;;
31848;SDS011;18414;59.352;18.152;2022-07-23T11:32:31;2.55;;;0.73;;
31848;SDS011;18414;59.352;18.152;2022-07-23T11:35:00;0.80;;;0.70;;
31848;SDS011;18414;59.352;18.152;2022-07-23T11:39:53;2.05;;;0.90;;
31848;SDS011;18414;59.352;18.152;2022-07-23T11:42:19;1.55;;;0.90;;
31848;SDS011;18414;59.352;18.152;2022-07-23T11:44:46;1.52;;;1.10;;
31848;SDS011;18414;59.352;18.152;2022-07-23T11:47:11;2.05;;;1.10;;
31848;SDS011;18414;59.352;18.152;2022-07-23T11:49:38;0.75;;;0.75;;
31848;SDS011;18414;59.352;18.152;2022-07-23T11:52:09;1.90;;;0.90;;
31848;SDS011;18414;59.352;18.152;2022-07-23T11:54:37;2.47;;;1.23;;
31848;SDS011;18414;59.352;18.152;2022-07-23T11:57:25;0.93;;;0.75;;
31848;SDS011;18414;59.352;18.152;2022-07-23T11:59:53;0.80;;;0.80;;
31848;SDS011;18414;59.352;18.152;2022-07-23T12:02:41;1.27;;;0.80;;
31848;SDS011;18414;59.352;18.152;2022-07-23T12:05:11;1.33;;;0.80;;
31848;SDS011;18414;59.352;18.152;2022-07-23T12:07:42;2.03;;;0.82;;
31848;SDS011;18414;59.352;18.152;2022-07-23T12:10:14;1.75;;;1.20;;
31848;SDS011;18414;59.352;18.152;2022-07-23T12:12:54;1.80;;;1.10;;
31848;SDS011;18414;59.352;18.152;2022-07-23T12:15:23;1.15;;;1.00;;
31848;SDS011;18414;59.352;18.152;2022-07-23T12:17:55;4.75;;;1.20;;
31848;SDS011;18414;59.352;18.152;2022-07-23T12:20:22;1.20;;;0.85;;
31848;SDS011;18414;59.352;18.152;2022-07-23T12:22:49;2.45;;;1.10;;
31848;SDS011;18414;59.352;18.152;2022-07-23T12:25:17;2.42;;;1.08;;
31848;SDS011;18414;59.352;18.152;2022-07-23T12:27:45;1.27;;;1.13;;
31848;SDS011;18414;59.352;18.152;2022-07-23T12:32:50;1.38;;;1.10;;
31848;SDS011;18414;59.352;18.152;2022-07-23T12:35:18;1.52;;;1.17;;
31848;SDS011;18414;59.352;18.152;2022-07-23T12:37:44;1.50;;;1.10;;
31848;SDS011;18414;59.352;18.152;2022-07-23T12:40:24;1.33;;;1.05;;
31848;SDS011;18414;59.352;18.152;2022-07-23T12:42:56;1.50;;;1.20;;
31848;SDS011;18414;59.352;18.152;2022-07-23T12:45:26;1.50;;;1.08;;
31848;SDS011;18414;59.352;18.152;2022-07-23T12:50:44;1.23;;;1.10;;
31848;SDS011;18414;59.352;18.152;2022-07-23T12:53:15;1.20;;;1.10;;
31848;SDS011;18414;59.352;18.152;2022-07-23T12:55:48;1.50;;;1.30;;
31848;SDS011;18414;59.352;18.152;2022-07-23T12:58:18;1.10;;;1.08;;
31848;SDS011;18414;59.352;18.152;2022-07-23T13:00:58;2.33;;;1.20;;
31848;SDS011;18414;59.352;18.152;2022-07-23T13:03:32;1.35;;;1.00;;
31848;SDS011;18414;59.352;18.152;2022-07-23T13:06:07;1.17;;;1.08;;
31848;SDS011;18414;59.352;18.152;2022-07-23T13:08:34;1.63;;;1.10;;
31848;SDS011;18414;59.352;18.152;2022-07-23T13:11:02;1.13;;;1.02;;
31848;SDS011;18414;59.352;18.152;2022-07-23T13:13:30;1.50;;;1.10;;
31848;SDS011;18414;59.352;18.152;2022-07-23T13:15:57;1.10;;;1.00;;
31848;SDS011;18414;59.352;18.152;2022-07-23T13:18:23;1.55;;;1.17;;
31848;SDS011;18414;59.352;18.152;2022-07-23T13:20:48;1.20;;;1.10;;
31848;SDS011;18414;59.352;18.152;2022-07-23T13:23:14;1.75;;;1.20;;
31848;SDS011;18414;59.352;18.152;2022-07-23T13:25:41;1.40;;;1.08;;
31848;SDS011;18414;59.352;18.152;2022-07-23T13:28:08;1.20;;;1.10;;
31848;SDS011;18414;59.352;18.152;2022-07-23T13:30:35;1.55;;;1.00;;
31848;SDS011;18414;59.352;18.152;2022-07-23T13:33:03;1.13;;;1.02;;
31848;SDS011;18414;59.352;18.152;2022-07-23T13:35:29;1.20;;;1.10;;
31848;SDS011;18414;59.352;18.152;2022-07-23T13:37:54;1.00;;;0.90;;
31848;SDS011;18414;59.352;18.152;2022-07-23T13:40:20;1.02;;;0.98;;
31848;SDS011;18414;59.352;18.152;2022-07-23T13:42:47;1.23;;;0.90;;
31848;SDS011;18414;59.352;18.152;2022-07-23T13:45:12;2.90;;;0.90;;
31848;SDS011;18414;59.352;18.152;2022-07-23T13:47:38;1.27;;;1.02;;
31848;SDS011;18414;59.352;18.152;2022-07-23T13:50:04;1.27;;;1.10;;
31848;SDS011;18414;59.352;18.152;2022-07-23T13:52:30;1.27;;;1.08;;
31848;SDS011;18414;59.352;18.152;2022-07-23T13:54:58;1.23;;;1.05;;
31848;SDS011;18414;59.352;18.152;2022-07-23T13:57:23;1.95;;;1.13;;
31848;SDS011;18414;59.352;18.152;2022-07-23T13:59:49;1.30;;;1.00;;
31848;SDS011;18414;59.352;18.152;2022-07-23T14:02:15;1.10;;;1.00;;
31848;SDS011;18414;59.352;18.152;2022-07-23T14:04:41;2.15;;;1.20;;
31848;SDS011;18414;59.352;18.152;2022-07-23T14:07:06;1.65;;;0.95;;
31848;SDS011;18414;59.352;18.152;2022-07-23T14:09:32;2.63;;;0.98;;
31848;SDS011;18414;59.352;18.152;2022-07-23T14:11:59;1.00;;;0.95;;
31848;SDS011;18414;59.352;18.152;2022-07-23T14:14:24;2.80;;;1.02;;
31848;SDS011;18414;59.352;18.152;2022-07-23T14:16:50;1.27;;;1.10;;
31848;SDS011;18414;59.352;18.152;2022-07-23T14:19:15;3.08;;;1.40;;
31848;SDS011;18414;59.352;18.152;2022-07-23T14:21:41;3.13;;;1.52;;
31848;SDS011;18414;59.352;18.152;2022-07-23T14:24:07;4.90;;;2.15;;
31848;SDS011;18414;59.352;18.152;2022-07-23T14:26:33;1.98;;;1.50;;
31848;SDS011;18414;59.352;18.152;2022-07-23T14:28:58;2.47;;;1.30;;
31848;SDS011;18414;59.352;18.152;2022-07-23T14:31:24;1.90;;;1.42;;
31848;SDS011;18414;59.352;18.152;2022-07-23T14:33:50;1.67;;;1.40;;
31848;SDS011;18414;59.352;18.152;2022-07-23T14:36:15;1.70;;;1.60;;
31848;SDS011;18414;59.352;18.152;2022-07-23T14:38:41;4.47;;;1.70;;
31848;SDS011;18414;59.352;18.152;2022-07-23T14:41:06;3.60;;;1.65;;
31848;SDS011;18414;59.352;18.152;2022-07-23T14:43:33;1.50;;;1.40;;
31848;SDS011;18414;59.352;18.152;2022-07-23T14:45:58;2.60;;;1.30;;
31848;SDS011;18414;59.352;18.152;2022-07-23T14:48:24;1.92;;;1.48;;
31848;SDS011;18414;59.352;18.152;2022-07-23T14:50:49;1.08;;;1.00;;
31848;SDS011;18414;59.352;18.152;2022-07-23T14:53:15;2.35;;;1.35;;
31848;SDS011;18414;59.352;18.152;2022-07-23T14:55:40;2.25;;;1.10;;
31848;SDS011;18414;59.352;18.152;2022-07-23T14:58:05;2.65;;;1.42;;
31848;SDS011;18414;59.352;18.152;2022-07-23T15:00:31;1.45;;;1.30;;
31848;SDS011;18414;59.352;18.152;2022-07-23T15:02:56;2.90;;;1.17;;
31848;SDS011;18414;59.352;18.152;2022-07-23T15:05:21;1.65;;;1.30;;
31848;SDS011;18414;59.352;18.152;2022-07-23T15:07:47;2.45;;;1.38;;
31848;SDS011;18414;59.352;18.152;2022-07-23T15:10:13;2.35;;;1.13;;
31848;SDS011;18414;59.352;18.152;2022-07-23T15:12:38;1.20;;;1.10;;
31848;SDS011;18414;59.352;18.152;2022-07-23T15:15:04;1.88;;;1.33;;